sensor_id;sensor_type;location;lat;lon;timestamp;temperature;humidity
37002;DHT22;22913;51.910;8.374;2022-12-18T00:02:23;-6.70;99.90
37002;DHT22;22913;51.910;8.374;2022-12-18T00:05:08;-6.70;99.90
37002;DHT22;22913;51.910;8.374;2022-12-18T00:07:54;-6.70;99.90
37002;DHT22;22913;51.910;8.374;2022-12-18T00:10:40;-6.70;99.90
37002;DHT22;22913;51.910;8.374;2022-12-18T00:13:25;-6.80;99.90
37002;DHT22;22913;51.910;8.374;2022-12-18T00:16:15;-6.70;99.90
37002;DHT22;22913;51.910;8.374;2022-12-18T00:19:01;-6.70;99.90
37002;DHT22;22913;51.910;8.374;2022-12-18T00:21:46;-6.70;99.90
37002;DHT22;22913;51.910;8.374;2022-12-18T00:24:32;-6.70;99.90
37002;DHT22;22913;51.910;8.374;2022-12-18T00:27:18;-6.60;99.90
37002;DHT22;22913;51.910;8.374;2022-12-18T00:30:04;-6.60;99.90
37002;DHT22;22913;51.910;8.374;2022-12-18T00:32:51;-6.60;99.90
37002;DHT22;22913;51.910;8.374;2022-12-18T00:35:37;-6.60;99.90
37002;DHT22;22913;51.910;8.374;2022-12-18T00:38:23;-6.60;99.90
37002;DHT22;22913;51.910;8.374;2022-12-18T00:41:10;-6.60;99.90
37002;DHT22;22913;51.910;8.374;2022-12-18T00:43:56;-6.70;99.90
37002;DHT22;22913;51.910;8.374;2022-12-18T00:46:41;-6.70;99.90
37002;DHT22;22913;51.910;8.374;2022-12-18T00:49:29;-6.70;99.90
37002;DHT22;22913;51.910;8.374;2022-12-18T00:52:15;-6.70;99.90
37002;DHT22;22913;51.910;8.374;2022-12-18T00:55:01;-6.70;99.90
37002;DHT22;22913;51.910;8.374;2022-12-18T00:57:47;-6.70;99.90
37002;DHT22;22913;51.910;8.374;2022-12-18T01:00:33;-6.70;99.90
37002;DHT22;22913;51.910;8.374;2022-12-18T01:03:19;-6.80;99.90
37002;DHT22;22913;51.910;8.374;2022-12-18T01:06:08;-6.70;99.90
37002;DHT22;22913;51.910;8.374;2022-12-18T01:08:55;-6.60;99.90
37002;DHT22;22913;51.910;8.374;2022-12-18T01:11:43;-6.60;99.90
37002;DHT22;22913;51.910;8.374;2022-12-18T01:14:31;-6.60;99.90
37002;DHT22;22913;51.910;8.374;2022-12-18T01:17:17;-6.60;99.90
37002;DHT22;22913;51.910;8.374;2022-12-18T01:20:04;-6.60;99.90
37002;DHT22;22913;51.910;8.374;2022-12-18T01:22:52;-6.60;99.90
37002;DHT22;22913;51.910;8.374;2022-12-18T01:25:38;-6.70;99.90
37002;DHT22;22913;51.910;8.374;2022-12-18T01:28:27;-6.60;99.90
37002;DHT22;22913;51.910;8.374;2022-12-18T01:31:19;-6.60;99.90
37002;DHT22;22913;51.910;8.374;2022-12-18T01:34:05;-6.60;99.90
37002;DHT22;22913;51.910;8.374;2022-12-18T01:36:52;-6.60;99.90
37002;DHT22;22913;51.910;8.374;2022-12-18T01:39:42;-6.70;99.90
37002;DHT22;22913;51.910;8.374;2022-12-18T01:42:27;-6.70;99.90
37002;DHT22;22913;51.910;8.374;2022-12-18T01:45:25;-6.70;99.90
37002;DHT22;22913;51.910;8.374;2022-12-18T01:48:11;-6.70;99.90
37002;DHT22;22913;51.910;8.374;2022-12-18T01:51:01;-6.50;99.90
37002;DHT22;22913;51.910;8.374;2022-12-18T01:53:50;-6.50;99.90
37002;DHT22;22913;51.910;8.374;2022-12-18T01:56:37;-6.50;99.90
37002;DHT22;22913;51.910;8.374;2022-12-18T01:59:23;-6.60;99.90
37002;DHT22;22913;51.910;8.374;2022-12-18T02:02:11;-6.60;99.90
37002;DHT22;22913;51.910;8.374;2022-12-18T02:04:58;-6.60;99.90
37002;DHT22;22913;51.910;8.374;2022-12-18T02:07:51;-6.60;99.90
37002;DHT22;22913;51.910;8.374;2022-12-18T02:10:48;-6.70;99.90
37002;DHT22;22913;51.910;8.374;2022-12-18T02:13:48;-6.70;99.90
37002;DHT22;22913;51.910;8.374;2022-12-18T02:16:39;-6.70;99.90
37002;DHT22;22913;51.910;8.374;2022-12-18T02:19:43;-6.70;99.90
37002;DHT22;22913;51.910;8.374;2022-12-18T02:22:39;-6.70;99.90
37002;DHT22;22913;51.910;8.374;2022-12-18T02:25:52;-6.70;99.90
37002;DHT22;22913;51.910;8.374;2022-12-18T02:28:42;-6.70;99.90
37002;DHT22;22913;51.910;8.374;2022-12-18T02:31:36;-6.60;99.90
37002;DHT22;22913;51.910;8.374;2022-12-18T02:34:30;-6.60;99.90
37002;DHT22;22913;51.910;8.374;2022-12-18T02:37:18;-6.60;99.90
37002;DHT22;22913;51.910;8.374;2022-12-18T02:40:06;-6.60;99.90
37002;DHT22;22913;51.910;8.374;2022-12-18T02:42:55;-6.70;99.90
37002;DHT22;22913;51.910;8.374;2022-12-18T02:45:46;-6.60;99.90
37002;DHT22;22913;51.910;8.374;2022-12-18T02:48:38;-6.60;99.90
37002;DHT22;22913;51.910;8.374;2022-12-18T02:51:30;-6.70;99.90
37002;DHT22;22913;51.910;8.374;2022-12-18T02:57:34;-6.60;99.90
37002;DHT22;22913;51.910;8.374;2022-12-18T03:00:24;-6.60;99.90
37002;DHT22;22913;51.910;8.374;2022-12-18T03:03:18;-6.50;99.90
37002;DHT22;22913;51.910;8.374;2022-12-18T03:06:08;-6.50;99.90
37002;DHT22;22913;51.910;8.374;2022-12-18T03:08:58;-6.50;99.90
37002;DHT22;22913;51.910;8.374;2022-12-18T03:11:49;-6.50;99.90
37002;DHT22;22913;51.910;8.374;2022-12-18T03:14:59;-6.50;99.90
37002;DHT22;22913;51.910;8.374;2022-12-18T03:17:52;-6.50;99.90
37002;DHT22;22913;51.910;8.374;2022-12-18T03:20:42;-6.60;99.90
37002;DHT22;22913;51.910;8.374;2022-12-18T03:23:33;-6.60;99.90
37002;DHT22;22913;51.910;8.374;2022-12-18T03:26:23;-6.60;99.90
37002;DHT22;22913;51.910;8.374;2022-12-18T03:29:14;-6.70;99.90
37002;DHT22;22913;51.910;8.374;2022-12-18T03:32:04;-6.70;99.90
37002;DHT22;22913;51.910;8.374;2022-12-18T03:34:56;-6.70;99.90
37002;DHT22;22913;51.910;8.374;2022-12-18T03:37:44;-6.60;99.90
37002;DHT22;22913;51.910;8.374;2022-12-18T03:40:35;-6.60;99.90
37002;DHT22;22913;51.910;8.374;2022-12-18T03:43:36;-6.60;99.90
37002;DHT22;22913;51.910;8.374;2022-12-18T03:46:28;-6.60;99.90
37002;DHT22;22913;51.910;8.374;2022-12-18T03:49:22;-6.70;99.90
37002;DHT22;22913;51.910;8.374;2022-12-18T03:52:13;-6.70;99.90
37002;DHT22;22913;51.910;8.374;2022-12-18T03:55:01;-6.80;99.90
37002;DHT22;22913;51.910;8.374;2022-12-18T03:57:52;-6.80;99.90
37002;DHT22;22913;51.910;8.374;2022-12-18T04:00:39;-6.90;99.90
37002;DHT22;22913;51.910;8.374;2022-12-18T04:03:25;-6.80;99.90
37002;DHT22;22913;51.910;8.374;2022-12-18T04:06:21;-6.80;99.90
37002;DHT22;22913;51.910;8.374;2022-12-18T04:09:10;-6.80;99.90
37002;DHT22;22913;51.910;8.374;2022-12-18T04:11:55;-6.80;99.90
37002;DHT22;22913;51.910;8.374;2022-12-18T04:14:41;-6.80;99.90
37002;DHT22;22913;51.910;8.374;2022-12-18T04:17:27;-6.80;99.90
37002;DHT22;22913;51.910;8.374;2022-12-18T04:20:13;-6.70;99.90
37002;DHT22;22913;51.910;8.374;2022-12-18T04:22:59;-6.70;99.90
37002;DHT22;22913;51.910;8.374;2022-12-18T04:25:47;-6.70;99.90
37002;DHT22;22913;51.910;8.374;2022-12-18T04:28:32;-6.60;99.90
37002;DHT22;22913;51.910;8.374;2022-12-18T04:31:18;-6.60;99.90
37002;DHT22;22913;51.910;8.374;2022-12-18T04:34:04;-6.50;99.90
37002;DHT22;22913;51.910;8.374;2022-12-18T04:36:49;-6.60;99.90
37002;DHT22;22913;51.910;8.374;2022-12-18T04:39:35;-6.50;99.90
37002;DHT22;22913;51.910;8.374;2022-12-18T04:42:22;-6.50;99.90
37002;DHT22;22913;51.910;8.374;2022-12-18T04:45:08;-6.50;99.90
37002;DHT22;22913;51.910;8.374;2022-12-18T04:47:54;-6.50;99.90
37002;DHT22;22913;51.910;8.374;2022-12-18T04:50:40;-6.50;99.90
37002;DHT22;22913;51.910;8.374;2022-12-18T04:53:26;-6.60;99.90
37002;DHT22;22913;51.910;8.374;2022-12-18T04:56:14;-6.50;99.90
37002;DHT22;22913;51.910;8.374;2022-12-18T04:59:02;-6.50;99.90
37002;DHT22;22913;51.910;8.374;2022-12-18T05:01:49;-6.50;99.90
37002;DHT22;22913;51.910;8.374;2022-12-18T05:04:35;-6.50;99.90
37002;DHT22;22913;51.910;8.374;2022-12-18T05:07:21;-6.50;99.90
37002;DHT22;22913;51.910;8.374;2022-12-18T05:10:07;-6.50;99.90
37002;DHT22;22913;51.910;8.374;2022-12-18T05:12:55;-6.60;99.90
37002;DHT22;22913;51.910;8.374;2022-12-18T05:15:51;-6.50;99.90
37002;DHT22;22913;51.910;8.374;2022-12-18T05:18:37;-6.40;99.90
37002;DHT22;22913;51.910;8.374;2022-12-18T05:21:26;-6.30;99.90
37002;DHT22;22913;51.910;8.374;2022-12-18T05:24:12;-6.30;99.90
37002;DHT22;22913;51.910;8.374;2022-12-18T05:26:58;-6.30;99.90
37002;DHT22;22913;51.910;8.374;2022-12-18T05:29:44;-6.30;99.90
37002;DHT22;22913;51.910;8.374;2022-12-18T05:32:31;-6.30;99.90
37002;DHT22;22913;51.910;8.374;2022-12-18T05:35:18;-6.30;99.90
37002;DHT22;22913;51.910;8.374;2022-12-18T05:38:05;-6.30;99.90
37002;DHT22;22913;51.910;8.374;2022-12-18T05:40:53;-6.30;99.90
37002;DHT22;22913;51.910;8.374;2022-12-18T05:43:39;-6.30;99.90
37002;DHT22;22913;51.910;8.374;2022-12-18T05:46:26;-6.30;99.90
37002;DHT22;22913;51.910;8.374;2022-12-18T05:49:13;-6.30;99.90
37002;DHT22;22913;51.910;8.374;2022-12-18T05:51:59;-6.30;99.90
37002;DHT22;22913;51.910;8.374;2022-12-18T05:54:45;-6.40;99.90
37002;DHT22;22913;51.910;8.374;2022-12-18T05:57:31;-6.30;99.90
37002;DHT22;22913;51.910;8.374;2022-12-18T06:00:17;-6.30;99.90
37002;DHT22;22913;51.910;8.374;2022-12-18T06:03:03;-6.30;99.90
37002;DHT22;22913;51.910;8.374;2022-12-18T06:05:50;-6.40;99.90
37002;DHT22;22913;51.910;8.374;2022-12-18T06:08:36;-6.30;99.90
37002;DHT22;22913;51.910;8.374;2022-12-18T06:11:24;-6.30;99.90
37002;DHT22;22913;51.910;8.374;2022-12-18T06:14:10;-6.20;99.90
37002;DHT22;22913;51.910;8.374;2022-12-18T06:16:56;-6.20;99.90
37002;DHT22;22913;51.910;8.374;2022-12-18T06:19:42;-6.20;99.90
37002;DHT22;22913;51.910;8.374;2022-12-18T06:22:30;-6.20;99.90
37002;DHT22;22913;51.910;8.374;2022-12-18T06:25:18;-6.20;99.90
37002;DHT22;22913;51.910;8.374;2022-12-18T06:28:04;-6.20;99.90
37002;DHT22;22913;51.910;8.374;2022-12-18T06:30:53;-6.20;99.90
37002;DHT22;22913;51.910;8.374;2022-12-18T06:33:39;-6.20;99.90
37002;DHT22;22913;51.910;8.374;2022-12-18T06:36:25;-6.10;99.90
37002;DHT22;22913;51.910;8.374;2022-12-18T06:39:12;-6.10;99.90
37002;DHT22;22913;51.910;8.374;2022-12-18T06:41:58;-6.10;99.90
37002;DHT22;22913;51.910;8.374;2022-12-18T06:44:44;-6.10;99.90
37002;DHT22;22913;51.910;8.374;2022-12-18T06:47:30;-6.20;99.90
37002;DHT22;22913;51.910;8.374;2022-12-18T06:50:16;-6.10;99.90
37002;DHT22;22913;51.910;8.374;2022-12-18T06:53:02;-6.10;99.90
37002;DHT22;22913;51.910;8.374;2022-12-18T06:55:49;-6.10;99.90
37002;DHT22;22913;51.910;8.374;2022-12-18T06:58:35;-6.00;99.90
37002;DHT22;22913;51.910;8.374;2022-12-18T07:01:24;-6.00;99.90
37002;DHT22;22913;51.910;8.374;2022-12-18T07:04:09;-6.00;99.90
37002;DHT22;22913;51.910;8.374;2022-12-18T07:06:55;-6.00;99.90
37002;DHT22;22913;51.910;8.374;2022-12-18T07:09:41;-5.90;99.90
37002;DHT22;22913;51.910;8.374;2022-12-18T07:12:28;-5.90;99.90
37002;DHT22;22913;51.910;8.374;2022-12-18T07:15:14;-6.00;99.90
37002;DHT22;22913;51.910;8.374;2022-12-18T07:18:00;-6.00;99.90
37002;DHT22;22913;51.910;8.374;2022-12-18T07:20:45;-6.00;99.90
37002;DHT22;22913;51.910;8.374;2022-12-18T07:23:32;-6.00;99.90
37002;DHT22;22913;51.910;8.374;2022-12-18T07:26:19;-5.90;99.90
37002;DHT22;22913;51.910;8.374;2022-12-18T07:29:07;-5.90;99.90
37002;DHT22;22913;51.910;8.374;2022-12-18T07:31:53;-5.80;99.90
37002;DHT22;22913;51.910;8.374;2022-12-18T07:34:39;-5.80;99.90
37002;DHT22;22913;51.910;8.374;2022-12-18T07:37:25;-5.70;99.90
37002;DHT22;22913;51.910;8.374;2022-12-18T07:40:12;-5.70;99.90
37002;DHT22;22913;51.910;8.374;2022-12-18T07:42:57;-5.60;99.90
37002;DHT22;22913;51.910;8.374;2022-12-18T07:45:45;-5.60;99.90
37002;DHT22;22913;51.910;8.374;2022-12-18T07:48:31;-5.60;99.90
37002;DHT22;22913;51.910;8.374;2022-12-18T07:51:17;-5.50;99.90
37002;DHT22;22913;51.910;8.374;2022-12-18T07:54:03;-5.50;99.90
37002;DHT22;22913;51.910;8.374;2022-12-18T07:56:49;-5.50;99.90
37002;DHT22;22913;51.910;8.374;2022-12-18T07:59:35;-5.50;99.90
37002;DHT22;22913;51.910;8.374;2022-12-18T08:02:22;-5.50;99.90
37002;DHT22;22913;51.910;8.374;2022-12-18T08:05:08;-5.40;99.90
37002;DHT22;22913;51.910;8.374;2022-12-18T08:07:54;-5.30;99.90
37002;DHT22;22913;51.910;8.374;2022-12-18T08:10:40;-5.30;99.90
37002;DHT22;22913;51.910;8.374;2022-12-18T08:13:27;-5.20;99.90
37002;DHT22;22913;51.910;8.374;2022-12-18T08:16:12;-5.20;99.90
37002;DHT22;22913;51.910;8.374;2022-12-18T08:19:00;-5.10;99.90
37002;DHT22;22913;51.910;8.374;2022-12-18T08:21:45;-5.10;99.90
37002;DHT22;22913;51.910;8.374;2022-12-18T08:24:31;-5.00;99.90
37002;DHT22;22913;51.910;8.374;2022-12-18T08:27:17;-4.90;99.90
37002;DHT22;22913;51.910;8.374;2022-12-18T08:30:04;-4.90;99.90
37002;DHT22;22913;51.910;8.374;2022-12-18T08:32:51;-4.80;99.90
37002;DHT22;22913;51.910;8.374;2022-12-18T08:35:39;-4.70;99.90
37002;DHT22;22913;51.910;8.374;2022-12-18T08:38:25;-4.70;99.90
37002;DHT22;22913;51.910;8.374;2022-12-18T08:41:13;-4.60;99.90
37002;DHT22;22913;51.910;8.374;2022-12-18T08:43:59;-4.50;99.90
37002;DHT22;22913;51.910;8.374;2022-12-18T08:47:02;-4.40;99.90
37002;DHT22;22913;51.910;8.374;2022-12-18T08:49:48;-4.30;99.90
37002;DHT22;22913;51.910;8.374;2022-12-18T08:52:35;-4.30;99.90
37002;DHT22;22913;51.910;8.374;2022-12-18T08:55:21;-4.20;99.90
37002;DHT22;22913;51.910;8.374;2022-12-18T08:58:07;-4.10;99.90
37002;DHT22;22913;51.910;8.374;2022-12-18T09:00:54;-4.00;99.90
37002;DHT22;22913;51.910;8.374;2022-12-18T09:03:40;-3.90;99.90
37002;DHT22;22913;51.910;8.374;2022-12-18T09:06:25;-3.70;99.90
37002;DHT22;22913;51.910;8.374;2022-12-18T09:09:13;-3.60;99.90
37002;DHT22;22913;51.910;8.374;2022-12-18T09:12:00;-3.50;99.90
37002;DHT22;22913;51.910;8.374;2022-12-18T09:14:46;-3.40;99.90
37002;DHT22;22913;51.910;8.374;2022-12-18T09:17:34;-3.30;99.90
37002;DHT22;22913;51.910;8.374;2022-12-18T09:20:20;-3.20;99.90
37002;DHT22;22913;51.910;8.374;2022-12-18T09:23:06;-3.20;99.90
37002;DHT22;22913;51.910;8.374;2022-12-18T09:26:00;-3.00;99.90
37002;DHT22;22913;51.910;8.374;2022-12-18T09:28:46;-3.00;99.90
37002;DHT22;22913;51.910;8.374;2022-12-18T09:31:31;-2.90;99.90
37002;DHT22;22913;51.910;8.374;2022-12-18T09:34:17;-2.70;99.90
37002;DHT22;22913;51.910;8.374;2022-12-18T09:37:05;-2.60;99.90
37002;DHT22;22913;51.910;8.374;2022-12-18T09:39:50;-2.50;99.90
37002;DHT22;22913;51.910;8.374;2022-12-18T09:42:37;-2.50;99.90
37002;DHT22;22913;51.910;8.374;2022-12-18T09:45:23;-2.30;99.90
37002;DHT22;22913;51.910;8.374;2022-12-18T09:48:10;-2.20;99.90
37002;DHT22;22913;51.910;8.374;2022-12-18T09:51:20;-2.10;99.90
37002;DHT22;22913;51.910;8.374;2022-12-18T09:54:12;-1.90;99.90
37002;DHT22;22913;51.910;8.374;2022-12-18T09:56:59;-1.80;99.90
37002;DHT22;22913;51.910;8.374;2022-12-18T09:59:49;-1.60;99.90
37002;DHT22;22913;51.910;8.374;2022-12-18T10:02:37;-1.60;99.90
37002;DHT22;22913;51.910;8.374;2022-12-18T10:05:31;-1.40;99.90
37002;DHT22;22913;51.910;8.374;2022-12-18T10:08:24;-1.30;99.90
37002;DHT22;22913;51.910;8.374;2022-12-18T10:11:26;-1.20;99.90
37002;DHT22;22913;51.910;8.374;2022-12-18T10:14:18;-1.00;99.90
37002;DHT22;22913;51.910;8.374;2022-12-18T10:17:18;-0.70;99.90
37002;DHT22;22913;51.910;8.374;2022-12-18T10:20:12;-0.50;99.90
37002;DHT22;22913;51.910;8.374;2022-12-18T10:23:08;-0.20;99.90
37002;DHT22;22913;51.910;8.374;2022-12-18T10:26:03;0.10;99.90
37002;DHT22;22913;51.910;8.374;2022-12-18T10:28:48;0.40;99.90
37002;DHT22;22913;51.910;8.374;2022-12-18T10:31:35;0.70;99.90
37002;DHT22;22913;51.910;8.374;2022-12-18T10:34:23;0.80;99.90
37002;DHT22;22913;51.910;8.374;2022-12-18T10:37:14;1.20;99.90
37002;DHT22;22913;51.910;8.374;2022-12-18T10:40:11;1.60;99.90
37002;DHT22;22913;51.910;8.374;2022-12-18T10:43:11;1.90;99.90
37002;DHT22;22913;51.910;8.374;2022-12-18T10:46:08;2.30;99.90
37002;DHT22;22913;51.910;8.374;2022-12-18T10:48:57;2.50;99.90
37002;DHT22;22913;51.910;8.374;2022-12-18T10:51:44;2.20;99.90
37002;DHT22;22913;51.910;8.374;2022-12-18T10:54:31;2.10;99.90
37002;DHT22;22913;51.910;8.374;2022-12-18T10:57:32;2.20;99.90
37002;DHT22;22913;51.910;8.374;2022-12-18T11:00:27;2.20;99.90
37002;DHT22;22913;51.910;8.374;2022-12-18T11:03:31;2.30;99.90
37002;DHT22;22913;51.910;8.374;2022-12-18T11:06:19;2.20;99.90
37002;DHT22;22913;51.910;8.374;2022-12-18T11:09:20;2.20;99.90
37002;DHT22;22913;51.910;8.374;2022-12-18T11:12:15;2.20;99.90
37002;DHT22;22913;51.910;8.374;2022-12-18T11:15:02;2.20;99.90
37002;DHT22;22913;51.910;8.374;2022-12-18T11:17:49;2.00;99.90
37002;DHT22;22913;51.910;8.374;2022-12-18T11:20:36;2.00;99.90
37002;DHT22;22913;51.910;8.374;2022-12-18T11:23:22;2.20;99.90
37002;DHT22;22913;51.910;8.374;2022-12-18T11:26:09;2.20;99.90
37002;DHT22;22913;51.910;8.374;2022-12-18T11:29:09;2.30;99.90
37002;DHT22;22913;51.910;8.374;2022-12-18T11:32:30;2.40;99.90
37002;DHT22;22913;51.910;8.374;2022-12-18T11:35:21;2.30;99.90
37002;DHT22;22913;51.910;8.374;2022-12-18T11:38:17;2.30;99.90
37002;DHT22;22913;51.910;8.374;2022-12-18T11:41:07;2.20;99.90
37002;DHT22;22913;51.910;8.374;2022-12-18T11:44:01;2.30;99.90
37002;DHT22;22913;51.910;8.374;2022-12-18T11:46:51;2.40;99.90
37002;DHT22;22913;51.910;8.374;2022-12-18T11:49:39;2.40;99.90
37002;DHT22;22913;51.910;8.374;2022-12-18T11:52:30;2.50;99.90
37002;DHT22;22913;51.910;8.374;2022-12-18T11:55:27;2.50;99.90
37002;DHT22;22913;51.910;8.374;2022-12-18T11:58:22;2.50;99.90
37002;DHT22;22913;51.910;8.374;2022-12-18T12:01:18;2.50;99.90
37002;DHT22;22913;51.910;8.374;2022-12-18T12:04:25;2.50;99.90
37002;DHT22;22913;51.910;8.374;2022-12-18T12:07:26;2.60;99.90
37002;DHT22;22913;51.910;8.374;2022-12-18T12:10:36;2.60;99.90
37002;DHT22;22913;51.910;8.374;2022-12-18T12:13:34;2.60;99.90
37002;DHT22;22913;51.910;8.374;2022-12-18T12:16:29;2.60;99.90
37002;DHT22;22913;51.910;8.374;2022-12-18T12:19:29;2.60;99.90
37002;DHT22;22913;51.910;8.374;2022-12-18T12:22:24;2.60;99.90
37002;DHT22;22913;51.910;8.374;2022-12-18T12:25:21;2.50;99.90
37002;DHT22;22913;51.910;8.374;2022-12-18T12:28:19;2.40;99.90
37002;DHT22;22913;51.910;8.374;2022-12-18T12:31:12;2.10;99.90
37002;DHT22;22913;51.910;8.374;2022-12-18T12:34:09;2.00;99.90
37002;DHT22;22913;51.910;8.374;2022-12-18T12:37:09;1.90;99.90
37002;DHT22;22913;51.910;8.374;2022-12-18T12:40:06;1.90;99.90
37002;DHT22;22913;51.910;8.374;2022-12-18T12:43:10;1.90;99.90
37002;DHT22;22913;51.910;8.374;2022-12-18T12:46:13;1.90;99.90
37002;DHT22;22913;51.910;8.374;2022-12-18T12:49:03;2.00;99.90
37002;DHT22;22913;51.910;8.374;2022-12-18T12:51:58;2.10;99.90
37002;DHT22;22913;51.910;8.374;2022-12-18T12:54:59;2.10;99.90
37002;DHT22;22913;51.910;8.374;2022-12-18T12:57:47;2.10;99.90
37002;DHT22;22913;51.910;8.374;2022-12-18T13:00:40;2.00;99.90
37002;DHT22;22913;51.910;8.374;2022-12-18T13:03:35;2.00;99.90
37002;DHT22;22913;51.910;8.374;2022-12-18T13:06:37;2.00;99.90
37002;DHT22;22913;51.910;8.374;2022-12-18T13:09:24;2.00;99.90
37002;DHT22;22913;51.910;8.374;2022-12-18T13:12:16;1.90;99.90
37002;DHT22;22913;51.910;8.374;2022-12-18T13:15:22;1.80;99.90
37002;DHT22;22913;51.910;8.374;2022-12-18T13:18:27;1.80;99.90
37002;DHT22;22913;51.910;8.374;2022-12-18T13:21:22;1.70;99.90
37002;DHT22;22913;51.910;8.374;2022-12-18T13:24:22;1.60;99.90
37002;DHT22;22913;51.910;8.374;2022-12-18T13:30:48;1.50;99.90
37002;DHT22;22913;51.910;8.374;2022-12-18T13:33:44;1.40;99.90
37002;DHT22;22913;51.910;8.374;2022-12-18T13:36:32;1.60;99.90
37002;DHT22;22913;51.910;8.374;2022-12-18T13:39:34;1.60;99.90
37002;DHT22;22913;51.910;8.374;2022-12-18T13:42:44;1.60;99.90
37002;DHT22;22913;51.910;8.374;2022-12-18T13:45:49;1.60;99.90
37002;DHT22;22913;51.910;8.374;2022-12-18T13:48:49;1.60;99.90
37002;DHT22;22913;51.910;8.374;2022-12-18T13:51:35;1.50;99.90
37002;DHT22;22913;51.910;8.374;2022-12-18T13:54:32;1.60;99.90
37002;DHT22;22913;51.910;8.374;2022-12-18T13:57:30;1.50;99.90
37002;DHT22;22913;51.910;8.374;2022-12-18T14:00:25;1.40;99.90
37002;DHT22;22913;51.910;8.374;2022-12-18T14:03:19;1.40;99.90
37002;DHT22;22913;51.910;8.374;2022-12-18T14:06:07;1.40;99.90
37002;DHT22;22913;51.910;8.374;2022-12-18T14:08:53;1.40;99.90
37002;DHT22;22913;51.910;8.374;2022-12-18T14:11:39;1.50;99.90
37002;DHT22;22913;51.910;8.374;2022-12-18T14:14:26;1.50;99.90
37002;DHT22;22913;51.910;8.374;2022-12-18T14:17:12;1.50;99.90
37002;DHT22;22913;51.910;8.374;2022-12-18T14:19:58;1.50;99.90
37002;DHT22;22913;51.910;8.374;2022-12-18T14:22:45;1.40;99.90
37002;DHT22;22913;51.910;8.374;2022-12-18T14:25:31;1.40;99.90
37002;DHT22;22913;51.910;8.374;2022-12-18T14:28:17;1.40;99.90
37002;DHT22;22913;51.910;8.374;2022-12-18T14:31:04;1.40;99.90
37002;DHT22;22913;51.910;8.374;2022-12-18T14:33:49;1.30;99.90
37002;DHT22;22913;51.910;8.374;2022-12-18T14:36:35;1.30;99.90
37002;DHT22;22913;51.910;8.374;2022-12-18T14:39:24;1.30;99.90
37002;DHT22;22913;51.910;8.374;2022-12-18T14:42:10;1.20;99.90
37002;DHT22;22913;51.910;8.374;2022-12-18T14:45:33;1.20;99.90
37002;DHT22;22913;51.910;8.374;2022-12-18T14:48:21;1.10;99.90
37002;DHT22;22913;51.910;8.374;2022-12-18T14:51:15;1.20;99.90
37002;DHT22;22913;51.910;8.374;2022-12-18T14:54:04;1.20;99.90
37002;DHT22;22913;51.910;8.374;2022-12-18T14:56:54;1.10;99.90
37002;DHT22;22913;51.910;8.374;2022-12-18T14:59:41;1.10;99.90
37002;DHT22;22913;51.910;8.374;2022-12-18T15:02:28;1.10;99.90
37002;DHT22;22913;51.910;8.374;2022-12-18T15:05:19;1.10;99.90
37002;DHT22;22913;51.910;8.374;2022-12-18T15:08:30;1.00;99.90
37002;DHT22;22913;51.910;8.374;2022-12-18T15:11:30;1.00;99.90
37002;DHT22;22913;51.910;8.374;2022-12-18T15:14:31;1.00;99.90
37002;DHT22;22913;51.910;8.374;2022-12-18T15:17:18;1.00;99.90
37002;DHT22;22913;51.910;8.374;2022-12-18T15:20:10;0.90;99.90
37002;DHT22;22913;51.910;8.374;2022-12-18T15:22:57;0.90;99.90
37002;DHT22;22913;51.910;8.374;2022-12-18T15:25:43;1.00;99.90
37002;DHT22;22913;51.910;8.374;2022-12-18T15:28:32;0.90;99.90
37002;DHT22;22913;51.910;8.374;2022-12-18T15:31:24;0.80;99.90
37002;DHT22;22913;51.910;8.374;2022-12-18T15:34:13;0.90;99.90
37002;DHT22;22913;51.910;8.374;2022-12-18T15:36:59;0.80;99.90
37002;DHT22;22913;51.910;8.374;2022-12-18T15:39:46;0.70;99.90
37002;DHT22;22913;51.910;8.374;2022-12-18T15:42:32;0.70;99.90
37002;DHT22;22913;51.910;8.374;2022-12-18T15:45:35;0.80;99.90
37002;DHT22;22913;51.910;8.374;2022-12-18T15:48:22;0.70;99.90
37002;DHT22;22913;51.910;8.374;2022-12-18T15:51:13;0.70;99.90
37002;DHT22;22913;51.910;8.374;2022-12-18T15:54:00;0.60;99.90
37002;DHT22;22913;51.910;8.374;2022-12-18T15:56:49;0.60;99.90
37002;DHT22;22913;51.910;8.374;2022-12-18T15:59:54;0.60;99.90
37002;DHT22;22913;51.910;8.374;2022-12-18T16:02:42;0.60;99.90
37002;DHT22;22913;51.910;8.374;2022-12-18T16:05:28;0.60;99.90
37002;DHT22;22913;51.910;8.374;2022-12-18T16:08:14;0.60;99.90
37002;DHT22;22913;51.910;8.374;2022-12-18T16:11:00;0.60;99.90
37002;DHT22;22913;51.910;8.374;2022-12-18T16:13:47;0.60;99.90
37002;DHT22;22913;51.910;8.374;2022-12-18T16:16:32;0.70;99.90
37002;DHT22;22913;51.910;8.374;2022-12-18T16:19:18;0.70;99.90
37002;DHT22;22913;51.910;8.374;2022-12-18T16:22:05;0.60;99.90
37002;DHT22;22913;51.910;8.374;2022-12-18T16:24:51;0.60;99.90
37002;DHT22;22913;51.910;8.374;2022-12-18T16:27:37;0.60;99.90
37002;DHT22;22913;51.910;8.374;2022-12-18T16:30:26;0.60;99.90
37002;DHT22;22913;51.910;8.374;2022-12-18T16:33:12;0.70;99.90
37002;DHT22;22913;51.910;8.374;2022-12-18T16:35:57;0.70;99.90
37002;DHT22;22913;51.910;8.374;2022-12-18T16:38:43;0.70;99.90
37002;DHT22;22913;51.910;8.374;2022-12-18T16:41:28;0.70;99.90
37002;DHT22;22913;51.910;8.374;2022-12-18T16:44:17;0.70;99.90
37002;DHT22;22913;51.910;8.374;2022-12-18T16:47:04;0.70;99.90
37002;DHT22;22913;51.910;8.374;2022-12-18T16:49:50;0.70;99.90
37002;DHT22;22913;51.910;8.374;2022-12-18T16:52:36;0.60;99.90
37002;DHT22;22913;51.910;8.374;2022-12-18T16:55:22;0.60;99.90
37002;DHT22;22913;51.910;8.374;2022-12-18T16:58:07;0.60;99.90
37002;DHT22;22913;51.910;8.374;2022-12-18T17:00:53;0.60;99.90
37002;DHT22;22913;51.910;8.374;2022-12-18T17:03:40;0.60;99.90
37002;DHT22;22913;51.910;8.374;2022-12-18T17:06:27;0.50;99.90
37002;DHT22;22913;51.910;8.374;2022-12-18T17:09:14;0.50;99.90
37002;DHT22;22913;51.910;8.374;2022-12-18T17:12:00;0.50;99.90
37002;DHT22;22913;51.910;8.374;2022-12-18T17:14:45;0.50;99.90
37002;DHT22;22913;51.910;8.374;2022-12-18T17:17:31;0.50;99.90
37002;DHT22;22913;51.910;8.374;2022-12-18T17:20:18;0.50;99.90
37002;DHT22;22913;51.910;8.374;2022-12-18T17:23:03;0.50;99.90
37002;DHT22;22913;51.910;8.374;2022-12-18T17:25:53;0.50;99.90
37002;DHT22;22913;51.910;8.374;2022-12-18T17:28:41;0.50;99.90
37002;DHT22;22913;51.910;8.374;2022-12-18T17:31:28;0.60;99.90
37002;DHT22;22913;51.910;8.374;2022-12-18T17:34:14;0.60;99.90
37002;DHT22;22913;51.910;8.374;2022-12-18T17:37:01;0.50;99.90
37002;DHT22;22913;51.910;8.374;2022-12-18T17:39:46;0.50;99.90
37002;DHT22;22913;51.910;8.374;2022-12-18T17:42:32;0.50;99.90
37002;DHT22;22913;51.910;8.374;2022-12-18T17:45:18;0.50;99.90
37002;DHT22;22913;51.910;8.374;2022-12-18T17:48:04;0.40;99.90
37002;DHT22;22913;51.910;8.374;2022-12-18T17:50:50;0.30;99.90
37002;DHT22;22913;51.910;8.374;2022-12-18T17:53:37;0.30;99.90
37002;DHT22;22913;51.910;8.374;2022-12-18T17:56:24;0.30;99.90
37002;DHT22;22913;51.910;8.374;2022-12-18T17:59:09;0.30;99.90
37002;DHT22;22913;51.910;8.374;2022-12-18T18:01:55;0.30;99.90
37002;DHT22;22913;51.910;8.374;2022-12-18T18:04:41;0.30;99.90
37002;DHT22;22913;51.910;8.374;2022-12-18T18:07:26;0.30;99.90